createdAt,value
2023-04-23T00:01:35.179Z,8.77
2023-04-23T00:06:37.942Z,4.20
2023-04-23T00:11:40.908Z,5.60
2023-04-23T00:16:45.335Z,5.97
2023-04-23T00:21:47.946Z,4.07
2023-04-23T00:26:52.873Z,5.20
2023-04-23T00:31:56.919Z,3.85
2023-04-23T00:36:59.630Z,5.28
2023-04-23T00:42:07.109Z,6.95
2023-04-23T00:47:12.213Z,2.80
2023-04-23T00:52:14.841Z,5.38
2023-04-23T00:57:17.886Z,6.78
2023-04-23T01:02:22.387Z,4.82
2023-04-23T01:07:25.456Z,6.45
2023-04-23T01:12:28.296Z,4.57
2023-04-23T01:17:34.270Z,6.95
2023-04-23T01:22:38.657Z,6.63
2023-04-23T01:27:41.763Z,3.85
2023-04-23T01:32:45.018Z,4.65
2023-04-23T01:37:49.591Z,4.03
2023-04-23T01:42:54.248Z,4.30
2023-04-23T01:47:57.088Z,3.28
2023-04-23T01:53:01.348Z,3.40
2023-04-23T01:58:04.010Z,6.22
2023-04-23T02:03:06.799Z,3.47
2023-04-23T02:08:11.305Z,4.20
2023-04-23T02:13:14.711Z,4.80
2023-04-23T02:18:17.422Z,5.18
2023-04-23T02:23:21.344Z,4.65
2023-04-23T02:28:23.968Z,4.75
2023-04-23T02:33:26.643Z,3.80
2023-04-23T02:38:30.581Z,3.45
2023-04-23T02:43:34.362Z,4.68
2023-04-23T02:48:38.001Z,4.75
2023-04-23T02:53:41.880Z,3.85
2023-04-23T02:58:45.100Z,4.88
2023-04-23T03:03:48.038Z,6.43
2023-04-23T03:08:52.309Z,4.07
2023-04-23T03:13:55.009Z,4.32
2023-04-23T03:18:57.810Z,4.13
2023-04-23T03:24:02.122Z,5.35
2023-04-23T03:29:06.297Z,3.97
2023-04-23T03:34:09.344Z,4.68
2023-04-23T03:39:15.254Z,5.30
2023-04-23T03:44:24.982Z,5.53
2023-04-23T03:49:27.974Z,4.95
2023-04-23T03:54:33.178Z,6.32
2023-04-23T03:59:40.546Z,3.80
2023-04-23T04:04:46.418Z,4.28
2023-04-23T04:09:50.769Z,3.70
2023-04-23T04:14:53.712Z,3.90
2023-04-23T04:19:56.354Z,3.60
2023-04-23T04:25:00.419Z,3.42
2023-04-23T04:30:03.446Z,3.08
2023-04-23T04:35:06.810Z,3.47
2023-04-23T04:40:12.739Z,7.03
2023-04-23T04:45:15.413Z,5.38
2023-04-23T04:50:18.145Z,4.88
2023-04-23T04:55:22.247Z,4.07
2023-04-23T05:00:27.821Z,3.25
2023-04-23T05:05:30.646Z,6.50
2023-04-23T05:10:34.641Z,3.33
2023-04-23T05:15:37.293Z,4.78
2023-04-23T05:20:40.026Z,3.70
2023-04-23T05:25:44.036Z,3.00
2023-04-23T05:30:46.642Z,3.53
2023-04-23T05:35:49.285Z,3.13
2023-04-23T05:40:53.585Z,3.30
2023-04-23T05:45:56.183Z,4.28
2023-04-23T05:50:59.224Z,7.32
2023-04-23T05:56:03.360Z,4.93
2023-04-23T06:01:06.519Z,4.80
2023-04-23T06:06:09.843Z,4.25
2023-04-23T06:11:14.570Z,3.70
2023-04-23T06:16:17.242Z,3.53
2023-04-23T06:21:21.017Z,5.18
2023-04-23T06:26:24.995Z,5.90
2023-04-23T06:31:31.040Z,4.65
2023-04-23T06:36:34.172Z,3.97
2023-04-23T06:41:38.249Z,6.25
2023-04-23T06:46:58.686Z,4.03
2023-04-23T06:52:13.364Z,4.30
2023-04-23T06:57:22.028Z,4.18
2023-04-23T07:02:25.061Z,3.35
2023-04-23T07:07:27.738Z,2.95
2023-04-23T07:12:32.151Z,4.80
2023-04-23T07:17:35.043Z,8.77
2023-04-23T07:22:37.793Z,6.97
2023-04-23T07:27:41.747Z,6.18
2023-04-23T07:32:44.742Z,6.88
2023-04-23T07:37:47.507Z,4.03
2023-04-23T07:42:52.036Z,3.45
2023-04-23T07:47:54.915Z,4.38
2023-04-23T07:52:57.747Z,4.05
2023-04-23T07:58:02.205Z,5.15
2023-04-23T08:03:06.126Z,5.13
2023-04-23T08:08:09.300Z,3.65
2023-04-23T08:13:14.075Z,2.55
2023-04-23T08:18:17.447Z,2.30
2023-04-23T08:23:21.390Z,3.78
2023-04-23T08:28:25.439Z,1.98
2023-04-23T08:33:28.672Z,2.00
2023-04-23T08:38:31.888Z,1.10
2023-04-23T08:43:39.629Z,3.50
2023-04-23T08:48:42.517Z,2.15
2023-04-23T08:53:49.946Z,2.75
2023-04-23T08:58:57.180Z,1.35
2023-04-23T09:04:02.476Z,2.55
2023-04-23T09:09:10.491Z,1.88
2023-04-23T09:14:15.701Z,1.90
2023-04-23T09:19:20.152Z,2.22
2023-04-23T09:24:24.196Z,2.00
2023-04-23T09:29:28.912Z,2.05
2023-04-23T09:34:41.340Z,3.03
2023-04-23T09:39:45.849Z,1.58
2023-04-23T09:44:56.963Z,1.83
2023-04-23T09:50:00.079Z,1.98
2023-04-23T09:55:04.319Z,1.42
2023-04-23T10:00:23.073Z,1.70
2023-04-23T10:05:34.185Z,1.63
2023-04-23T10:10:57.369Z,1.63
2023-04-23T10:16:20.649Z,1.17
2023-04-23T10:21:34.054Z,1.33
2023-04-23T10:26:45.601Z,1.25
2023-04-23T10:31:56.805Z,1.17
2023-04-23T10:37:00.850Z,1.40
2023-04-23T10:42:05.839Z,1.23
2023-04-23T10:47:13.412Z,1.52
2023-04-23T10:52:20.820Z,1.60
2023-04-23T10:57:25.505Z,1.10
2023-04-23T11:02:43.531Z,3.55
2023-04-23T11:08:14.703Z,2.05
2023-04-23T11:13:23.194Z,1.55
2023-04-23T11:18:28.486Z,3.25
2023-04-23T11:23:32.912Z,2.08
2023-04-23T11:28:36.979Z,1.30
2023-04-23T11:33:40.928Z,1.13
2023-04-23T11:38:43.550Z,1.70
2023-04-23T11:43:46.403Z,1.40
2023-04-23T11:48:51.028Z,1.15
2023-04-23T11:53:53.732Z,1.75
2023-04-23T11:58:59.967Z,1.10
2023-04-23T12:04:10.135Z,2.13
2023-04-23T12:09:13.732Z,0.70
2023-04-23T12:14:17.870Z,1.25
2023-04-23T12:19:22.395Z,1.60
2023-04-23T12:24:26.129Z,0.90
2023-04-23T12:29:31.005Z,1.48
2023-04-23T12:34:35.604Z,1.95
2023-04-23T12:39:40.581Z,1.42
2023-04-23T12:44:43.481Z,1.25
2023-04-23T12:49:53.090Z,0.95
2023-04-23T12:54:57.615Z,0.93
2023-04-23T13:00:00.221Z,2.13
2023-04-23T13:05:06.056Z,1.85
2023-04-23T13:10:09.318Z,1.20
2023-04-23T13:15:13.067Z,1.15
2023-04-23T13:20:16.943Z,0.77
2023-04-23T13:25:19.536Z,1.65
2023-04-23T13:30:22.257Z,2.38
2023-04-23T13:35:26.649Z,1.38
2023-04-23T13:40:32.796Z,1.05
2023-04-23T13:45:38.786Z,1.00
2023-04-23T13:50:45.345Z,1.45
2023-04-23T13:55:48.610Z,2.28
2023-04-23T14:00:54.319Z,2.28
2023-04-23T14:06:00.513Z,1.10
2023-04-23T14:11:03.464Z,1.30
2023-04-23T14:16:09.007Z,1.63
2023-04-23T14:21:16.389Z,1.63
2023-04-23T14:26:26.247Z,1.02
2023-04-23T14:31:31.798Z,1.60
2023-04-23T14:36:37.506Z,2.35
2023-04-23T14:41:44.486Z,1.92
2023-04-23T14:46:51.474Z,1.92
2023-04-23T14:51:55.669Z,0.60
2023-04-23T14:56:58.919Z,1.90
2023-04-23T15:02:04.959Z,1.70
2023-04-23T15:07:10.758Z,1.27
2023-04-23T15:12:40.065Z,0.80
2023-04-23T15:17:44.381Z,0.77
2023-04-23T15:22:49.338Z,1.63
2023-04-23T15:27:57.683Z,2.20
2023-04-23T15:33:00.479Z,2.08
2023-04-23T15:38:05.350Z,1.35
2023-04-23T15:43:11.670Z,0.70
2023-04-23T15:48:15.842Z,2.10
2023-04-23T15:53:24.445Z,7.55
2023-04-23T15:58:30.340Z,1.00
2023-04-23T16:03:35.045Z,0.80
2023-04-23T16:08:39.372Z,1.20
2023-04-23T16:13:46.193Z,1.73
2023-04-23T16:18:50.698Z,1.02
2023-04-23T16:23:54.849Z,1.20
2023-04-23T16:29:16.705Z,0.95
2023-04-23T16:34:34.382Z,2.70
2023-04-23T16:39:43.713Z,1.52
2023-04-23T16:44:49.022Z,0.95
2023-04-23T16:49:56.657Z,0.85
2023-04-23T16:55:01.091Z,1.10
2023-04-23T17:00:05.226Z,1.70
2023-04-23T17:05:09.107Z,0.80
2023-04-23T17:10:15.339Z,0.60
2023-04-23T17:15:19.382Z,2.55
2023-04-23T17:20:24.537Z,1.33
2023-04-23T17:25:35.048Z,2.38
2023-04-23T17:30:37.984Z,1.88
2023-04-23T17:35:41.633Z,1.35
2023-04-23T17:40:46.428Z,0.90
2023-04-23T17:45:50.045Z,1.60
2023-04-23T17:50:54.468Z,2.15
2023-04-23T17:56:03.029Z,2.28
2023-04-23T18:01:06.120Z,1.70
2023-04-23T18:06:09.328Z,1.40
2023-04-23T18:11:13.472Z,0.85
2023-04-23T18:16:16.307Z,1.65
2023-04-23T18:21:20.023Z,2.72
2023-04-23T18:26:24.165Z,4.13
2023-04-23T18:31:27.025Z,1.92
2023-04-23T18:36:31.800Z,1.20
2023-04-23T18:41:36.536Z,1.42
2023-04-23T18:46:40.482Z,2.03
2023-04-23T18:51:44.832Z,3.70
2023-04-23T18:56:50.827Z,5.18
2023-04-23T19:01:53.604Z,1.60
2023-04-23T19:06:56.637Z,2.55
2023-04-23T19:12:01.286Z,1.85
2023-04-23T19:17:04.389Z,2.70
2023-04-23T19:22:07.705Z,8.30
2023-04-23T19:27:11.764Z,10.02
2023-04-23T19:32:14.597Z,3.80
2023-04-23T19:37:17.276Z,3.35
2023-04-23T19:42:21.723Z,1.80
2023-04-23T19:47:25.089Z,1.55
2023-04-23T19:52:27.975Z,1.60
2023-04-23T19:57:32.083Z,2.47
2023-04-23T20:02:35.905Z,3.28
2023-04-23T20:07:38.688Z,2.13
2023-04-23T20:12:42.704Z,4.00
2023-04-23T20:17:45.999Z,2.35
2023-04-23T20:22:48.906Z,2.40
2023-04-23T20:27:53.168Z,2.30
2023-04-23T20:32:57.708Z,2.40
2023-04-23T20:38:01.065Z,1.90
2023-04-23T20:43:05.634Z,1.80
2023-04-23T20:48:09.831Z,1.40
2023-04-23T20:53:12.791Z,1.30
2023-04-23T20:58:16.781Z,1.92
2023-04-23T21:03:19.804Z,2.08
2023-04-23T21:08:22.531Z,1.67
2023-04-23T21:13:26.507Z,2.00
2023-04-23T21:18:29.110Z,1.48
2023-04-23T21:23:31.694Z,2.53
2023-04-23T21:28:35.873Z,1.70
2023-04-23T21:33:38.401Z,2.25
2023-04-23T21:38:40.978Z,1.50
2023-04-23T21:43:44.999Z,2.95
2023-04-23T21:48:50.424Z,2.00
2023-04-23T21:53:52.954Z,1.63
2023-04-23T21:58:57.015Z,1.85
2023-04-23T22:04:00.316Z,5.65
2023-04-23T22:09:03.141Z,2.13
2023-04-23T22:14:07.352Z,2.40
2023-04-23T22:19:10.211Z,2.30
2023-04-23T22:24:12.819Z,1.85
2023-04-23T22:29:16.783Z,2.08
2023-04-23T22:34:19.694Z,4.97
2023-04-23T22:39:22.338Z,2.55
2023-04-23T22:44:26.633Z,3.22
2023-04-23T22:49:29.706Z,1.98
2023-04-23T22:54:32.566Z,2.53
2023-04-23T22:59:36.707Z,2.10
2023-04-23T23:04:39.434Z,2.60
2023-04-23T23:09:42.260Z,1.70
2023-04-23T23:14:46.329Z,1.88
2023-04-23T23:19:48.905Z,2.85
2023-04-23T23:24:51.477Z,2.10
2023-04-23T23:29:56.130Z,1.83
2023-04-23T23:34:58.738Z,2.83
2023-04-23T23:40:01.523Z,1.55
2023-04-23T23:45:06.104Z,1.17
2023-04-23T23:50:09.239Z,4.07
2023-04-23T23:55:11.909Z,2.65
